Klemme/'s Corner

Nearby METAR Reports

 

KI67 - Harrison, Ohio, USA
Distance from station: ESE 14mi, 23km
Updated: Thu, 18-Apr-2024 1:55pm EDT
Clear
Clear
 Wind from calm
Wind: Calm
Temperature: 72°F , 22°C
Dew Point: 39°F , 4°C
Humidity: 31%
Barometer: 30.06 inHg , 1017.9 hPa
Clouds: Clear
Visibility: 10 miles , 16 km
2024/04/18 17:55 KI67 181755Z AUTO 00000KT 10SM CLR 22/04 A3006 RMK AO1
KHAO - Hamilton, Ohio, USA
Distance from station: E 26mi, 42km
Updated: Thu, 18-Apr-2024 1:53pm EDT
Clear
Clear
 Wind from varies
Wind: varies 3 mph , 6 km/h
Temperature: 73°F , 23°C
Dew Point: 48°F , 9°C
Humidity: 41%
Barometer: 30.07 inHg , 1018.3 hPa
Clouds: Clear
Visibility: 10 miles , 16 km
2024/04/18 17:53 KHAO 181753Z AUTO VRB03KT 10SM CLR 23/09 A3007 RMK AO2 SLP181 T02280089 10228 20106 58014
 
KCVG - Covington, Kentucky, USA
Distance from station: SE 28mi, 45km
Updated: Thu, 18-Apr-2024 1:52pm EDT
Mostly cloudy
Mostly cloudy
 Wind from calm
Wind: Calm
Temperature: 72°F , 22°C
Dew Point: 43°F , 6°C
Humidity: 36%
Barometer: 30.07 inHg , 1018.3 hPa
Clouds: Mostly cloudy
Visibility: 10 miles , 16 km
Cloud details: Mostly cloudy 30000 ft
2024/04/18 17:52 KCVG 181752Z 00000KT 10SM BKN300 22/06 A3007 RMK AO2 SLP174 T02220061 10222 20111 57012
KRID - Richmond, Indiana, USA
Distance from station: NNE 29mi, 46km
Updated: Thu, 18-Apr-2024 1:55pm EDT
Clear
Clear
 Wind from SW
Wind: SW 3 mph , 6 km/h
Temperature: 68°F , 20°C
Dew Point: 45°F , 7°C
Humidity: 43%
Barometer: 30.08 inHg , 1018.6 hPa
Clouds: Clear
Visibility: 10 miles , 16 km
2024/04/18 17:55 KRID 181755Z AUTO 23003KT 10SM CLR 20/07 A3008 RMK AO2
 
KMWO - Middletown/Hook, Ohio, USA
Distance from station: ENE 35mi, 56km
Updated: Thu, 18-Apr-2024 1:55pm EDT
Clear
Clear
 Wind from SSW
Wind: SSW 3 mph , 6 km/h
Temperature: 70°F , 21°C
Dew Point: 43°F , 6°C
Humidity: 38%
Barometer: 30.07 inHg , 1018.3 hPa
Clouds: Clear
Visibility: 10 miles , 16 km
2024/04/18 17:55 KMWO 181755Z AUTO 20003KT 10SM CLR 21/06 A3007 RMK AO2 T02090062 10211 20091
KLUK - Cincinnat/Lunken, Ohio, USA
Distance from station: ESE 36mi, 58km
Updated: Thu, 18-Apr-2024 1:53pm EDT
Clear
Clear
 Wind from SW
Wind: SW 6 mph , 9 km/h
Temperature: 73°F , 23°C
Dew Point: 50°F , 10°C
Humidity: 44%
Barometer: 30.06 inHg , 1017.9 hPa
Clouds: Clear
Visibility: 10 miles , 16 km
2024/04/18 17:53 KLUK 181753Z 22005KT 10SM CLR 23/10 A3006 RMK AO2 SLP175 T02280100 10233 20106 58016
 
KMGY - Dayton, Ohio, USA
Distance from station: ENE 45mi, 72km
Updated: Thu, 18-Apr-2024 1:53pm EDT
Clear
Clear
 Wind from varies
Wind: varies 5 mph , 7 km/h
Temperature: 70°F , 21°C
Dew Point: 45°F , 7°C
Humidity: 40%
Barometer: 30.06 inHg , 1017.9 hPa
Clouds: Clear
Visibility: 10 miles , 16 km
2024/04/18 17:53 KMGY 181753Z AUTO VRB04KT 10SM CLR 21/07 A3006 RMK AO2 SLP175 T02110072 10211 20117 58010
KGEZ - Shelbyville, Indiana, USA
Distance from station: WNW 45mi, 73km
Updated: Thu, 18-Apr-2024 1:53pm EDT
Clear
Clear
 Wind from varies
Wind: varies 7 mph , 11 km/h
Temperature: 73°F , 23°C
Dew Point: 46°F , 8°C
Humidity: 38%
Barometer: 30.05 inHg , 1017.6 hPa
Clouds: Clear
Visibility: 10 miles , 16 km
2024/04/18 17:53 KGEZ 181753Z AUTO VRB06KT 10SM CLR 23/08 A3005 RMK AO2 SLP173 T02280078 10228 20106 58009
 
KI69 - Batavia, Ohio, USA
Distance from station: ESE 46mi, 74km
Updated: Thu, 18-Apr-2024 1:56pm EDT
Clear
Clear
 Wind from calm
Wind: Calm
Temperature: 73°F , 23°C
Dew Point: 43°F , 6°C
Humidity: 33%
Barometer: 30.07 inHg , 1018.3 hPa
Clouds: Clear
Visibility: 10 miles , 16 km
2024/04/18 17:56 KI69 181756Z AUTO 00000KT 10SM CLR 23/06 A3007 RMK AO1 T02290064 10230 20123
KIMS - Madison, Indiana, USA
Distance from station: SSW 48mi, 76km
Updated: Thu, 18-Apr-2024 1:55pm EDT
Clear
Clear
 Wind from SSE
Wind: SSE 5 mph , 7 km/h
Temperature: 73°F , 23°C
Dew Point: 48°F , 9°C
Humidity: 41%
Barometer: 30.08 inHg , 1018.6 hPa
Clouds: Clear
Visibility: 10 miles , 16 km
2024/04/18 17:55 KIMS 181755Z AUTO 16004KT 10SM CLR 23/09 A3008 RMK AO2
 
KBAK - Columbus/Balkala, Indiana, USA
Distance from station: W 48mi, 78km
Updated: Thu, 18-Apr-2024 1:45pm EDT
Clear
Clear
 Wind from calm
Wind: Calm
Temperature: 70°F , 21°C
Dew Point: 45°F , 7°C
Humidity: 40%
Barometer: 30.06 inHg , 1017.9 hPa
Clouds: Clear
Visibility: 10 miles , 16 km
2024/04/18 17:45 KBAK 181745Z 00000KT 10SM CLR 21/07 A3006